Time,TemperatureF,DewpointF,PressureIn,WindDirection,WindDirectionDegrees,WindSpeedMPH,WindSpeedGustMPH,Humidity,HourlyPrecipIn,Conditions,Clouds,dailyrainin,SoftwareType,DateUTC
2013-08-15 00:00:00,59.0,52.0,29.83,North,-999,-999.0,-999.0,77,-99.99,,,-99.99,,2013-08-15 08:00:00,
2013-08-15 00:51:00,59.0,52.0,29.83,North,-999,-999.0,-999.0,77,-99.99,,,-99.99,,2013-08-15 08:51:00,
2013-08-15 01:00:00,59.0,53.0,29.83,North,-999,-999.0,-999.0,80,-99.99,,,-99.99,,2013-08-15 09:00:00,
2013-08-15 01:53:00,59.0,53.0,29.83,North,-999,-999.0,-999.0,80,-99.99,,,-99.99,,2013-08-15 09:53:00,
2013-08-15 02:00:00,58.0,51.0,29.84,North,-999,-999.0,-999.0,77,-99.99,,,-99.99,,2013-08-15 10:00:00,
2013-08-15 02:52:00,58.0,51.0,29.84,North,-999,-999.0,-999.0,77,-99.99,,,-99.99,,2013-08-15 10:52:00,
2013-08-15 03:00:00,58.0,52.0,29.83,North,-999,-999.0,-999.0,80,-99.99,,,-99.99,,2013-08-15 11:00:00,
2013-08-15 03:51:00,58.0,52.0,29.83,North,-999,-999.0,-999.0,80,-99.99,,,-99.99,,2013-08-15 11:51:00,
2013-08-15 05:00:00,57.0,52.0,29.82,North,-999,-999.0,-999.0,83,-99.99,,,-99.99,,2013-08-15 13:00:00,
2013-08-15 05:52:00,57.0,52.0,29.82,North,-999,-999.0,-999.0,83,-99.99,,,-99.99,,2013-08-15 13:52:00,
2013-08-15 06:00:00,56.0,52.0,29.82,North,-999,-999.0,-999.0,86,-99.99,,,-99.99,,2013-08-15 14:00:00,
2013-08-15 06:52:00,56.0,52.0,29.82,North,-999,-999.0,-999.0,86,-99.99,,,-99.99,,2013-08-15 14:52:00,
2013-08-15 07:00:00,57.0,53.0,29.82,North,-999,-999.0,-999.0,86,-99.99,,,-99.99,,2013-08-15 15:00:00,
2013-08-15 07:54:00,57.0,53.0,29.82,North,-999,-999.0,-999.0,86,-99.99,,,-99.99,,2013-08-15 15:54:00,
2013-08-15 08:00:00,57.0,53.0,29.81,North,-999,-999.0,-999.0,86,-99.99,,,-99.99,,2013-08-15 16:00:00,
2013-08-15 08:55:00,57.0,53.0,29.81,North,-999,-999.0,-999.0,86,-99.99,,,-99.99,,2013-08-15 16:55:00,
2013-08-15 09:00:00,58.0,53.0,29.83,North,-999,-999.0,-999.0,83,-99.99,,,-99.99,,2013-08-15 17:00:00,
2013-08-15 10:00:00,59.0,53.0,29.82,North,-999,-999.0,-999.0,80,-99.99,,,-99.99,,2013-08-15 18:00:00,
2013-08-15 11:59:00,60.0,55.0,29.81,North,-999,-999.0,-999.0,83,-99.99,,,-99.99,,2013-08-15 19:59:00,
2013-08-15 12:00:00,65.0,54.0,29.81,North,-999,-999.0,-999.0,67,-99.99,,,-99.99,,2013-08-15 20:00:00,
2013-08-15 12:53:00,65.0,54.0,29.81,North,-999,-999.0,-999.0,67,-99.99,,,-99.99,,2013-08-15 20:53:00,
2013-08-15 13:00:00,68.0,54.0,29.81,North,-999,-999.0,-999.0,60,-99.99,,,-99.99,,2013-08-15 21:00:00,
2013-08-15 13:57:00,68.0,54.0,29.81,North,-999,-999.0,-999.0,60,-99.99,,,-99.99,,2013-08-15 21:57:00,
2013-08-15 14:00:00,63.0,55.0,29.81,North,-999,-999.0,-999.0,75,-99.99,,,-99.99,,2013-08-15 22:00:00,
2013-08-15 14:58:00,63.0,55.0,29.81,North,-999,-999.0,-999.0,75,-99.99,,,-99.99,,2013-08-15 22:58:00,
2013-08-15 15:00:00,64.0,57.0,29.80,North,-999,-999.0,-999.0,77,-99.99,,,-99.99,,2013-08-15 23:00:00,
2013-08-15 15:55:00,64.0,57.0,29.80,North,-999,-999.0,-999.0,77,-99.99,,,-99.99,,2013-08-15 23:55:00,
2013-08-15 16:00:00,66.0,57.0,29.79,North,-999,-999.0,-999.0,72,-99.99,,,-99.99,,2013-08-16 00:00:00,
2013-08-15 16:52:00,66.0,57.0,29.79,North,-999,-999.0,-999.0,72,-99.99,,,-99.99,,2013-08-16 00:52:00,
2013-08-15 17:00:00,66.0,56.0,29.78,North,-999,-999.0,-999.0,69,-99.99,,,-99.99,,2013-08-16 01:00:00,
2013-08-15 17:54:00,66.0,56.0,29.78,North,-999,-999.0,-999.0,69,-99.99,,,-99.99,,2013-08-16 01:54:00,
2013-08-15 18:00:00,66.0,55.0,29.78,North,-999,-999.0,-999.0,67,-99.99,,,-99.99,,2013-08-16 02:00:00,
2013-08-15 18:51:00,66.0,55.0,29.78,North,-999,-999.0,-999.0,67,-99.99,,,-99.99,,2013-08-16 02:51:00,
2013-08-15 19:00:00,65.0,56.0,29.78,North,-999,-999.0,-999.0,72,-99.99,,,-99.99,,2013-08-16 03:00:00,
2013-08-15 19:53:00,65.0,56.0,29.78,North,-999,-999.0,-999.0,72,-99.99,,,-99.99,,2013-08-16 03:53:00,
2013-08-15 20:00:00,63.0,56.0,29.79,North,-999,-999.0,-999.0,77,-99.99,,,-99.99,,2013-08-16 04:00:00,
2013-08-15 20:53:00,63.0,56.0,29.79,North,-999,-999.0,-999.0,77,-99.99,,,-99.99,,2013-08-16 04:53:00,
2013-08-15 21:00:00,62.0,57.0,29.81,North,-999,-999.0,-999.0,83,-99.99,,,-99.99,,2013-08-16 05:00:00,
2013-08-15 21:51:00,62.0,57.0,29.81,North,-999,-999.0,-999.0,83,-99.99,,,-99.99,,2013-08-16 05:51:00,
2013-08-15 22:00:00,62.0,57.0,29.81,North,-999,-999.0,-999.0,83,-99.99,,,-99.99,,2013-08-16 06:00:00,
2013-08-15 23:00:00,61.0,58.0,29.80,North,-999,-999.0,-999.0,89,-99.99,,,-99.99,,2013-08-16 07:00:00,
2013-08-15 23:52:00,61.0,58.0,29.80,North,-999,-999.0,-999.0,89,-99.99,,,-99.99,,2013-08-16 07:52:00,